Tamanrasset, Algeria
Current Conditions -  °F | °C
As of 8:30 AM on Thursday 18 Dec 2014 (Local Time) from DAAT Reporting Station
Clear Clear  
Wind Chill: 43°   Ceiling: Unl
Heat Index: 43°   Visibility: 6mi
Dew Point: -8°   Wind: 2mph
Humidity: 12%   Direction: NA
Pressure: 30.12"   Gusts: NA
Location:  22.78°N, 5.52°E
Report Text: DAAT 180730Z VRB02KT CAVOK 06/M22 Q1020
Loading
Personal Weather Stations






























Interactive Weather Map New forecast layout! Learn more

10-Day Weather Forecast

Advertisements
Track Severe Weather on mobile